Time;durP1;ratioP1;P1;durP2;ratioP2;P2;SDS_P1;SDS_P2;PMS_P1;PMS_P2;Temp;Humidity;BMP_temperature;BMP_pressure;BME280_temperature;BME280_humidity;BME280_pressure;Samples;Min_cycle;Max_cycle;Signal;HPM_P1;HPM_P2
2022/10/14 00:01:31;;;;;;;124.07;68.38;;;;;;;11.49;100.00;101431.03;5133514;28;20035;-47
2022/10/14 00:03:58;;;;;;;123.50;68.57;;;;;;;11.51;100.00;101434.53;5132794;28;20046;-51
2022/10/14 00:06:26;;;;;;;120.78;68.72;;;;;;;11.51;100.00;101433.69;5133607;28;20027;-47
2022/10/14 00:08:52;;;;;;;125.50;68.63;;;;;;;11.52;100.00;101435.44;5133265;27;20030;-49
2022/10/14 00:11:21;;;;;;;122.40;68.07;;;;;;;11.52;100.00;101435.44;5135847;27;20023;-50
2022/10/14 00:13:47;;;;;;;120.40;68.13;;;;;;;11.52;100.00;101438.88;5137369;27;20031;-50
2022/10/14 00:16:36;;;;;;;118.53;66.00;;;;;;;11.56;100.00;101431.28;5136573;27;20046;-47
2022/10/14 00:19:02;;;;;;;123.05;69.60;;;;;;;11.53;100.00;101443.22;5137442;27;20027;-50
2022/10/14 00:21:28;;;;;;;119.40;64.82;;;;;;;11.56;100.00;101446.75;5137336;27;20024;-50
2022/10/14 00:23:55;;;;;;;111.65;65.13;;;;;;;11.57;100.00;101443.31;5136053;27;20033;-50
2022/10/14 00:26:27;;;;;;;108.43;65.10;;;;;;;11.57;100.00;101440.75;5137276;27;20076;-49
2022/10/14 00:28:53;;;;;;;110.72;64.53;;;;;;;11.56;100.00;101437.31;5136875;27;20548;-48
2022/10/14 00:31:18;;;;;;;105.88;63.38;;;;;;;11.58;100.00;101439.94;5136274;27;20015;-51
2022/10/14 00:33:44;;;;;;;106.90;64.47;;;;;;;11.59;100.00;101439.09;5136780;27;20025;-50
2022/10/14 00:36:13;;;;;;;106.30;64.40;;;;;;;11.58;100.00;101434.75;5136989;27;20047;-49
2022/10/14 00:38:39;;;;;;;110.13;62.25;;;;;;;11.57;100.00;101430.41;5135749;27;20098;-50
2022/10/14 00:41:04;;;;;;;110.63;62.40;;;;;;;11.56;100.00;101426.97;5136809;27;20106;-49
2022/10/14 00:43:52;;;;;;;104.95;63.08;;;;;;;11.61;100.00;101419.41;5136733;27;20635;-49
2022/10/14 00:46:17;;;;;;;106.65;61.55;;;;;;;11.58;100.00;101417.59;5136094;27;20023;-48
2022/10/14 00:48:43;;;;;;;105.03;60.97;;;;;;;11.59;100.00;101415.88;5136241;27;20096;-46
2022/10/14 00:51:09;;;;;;;109.65;63.63;;;;;;;11.60;100.00;101418.50;5136620;27;20389;-48
2022/10/14 00:53:36;;;;;;;104.47;60.85;;;;;;;11.60;100.00;101409.88;5136022;27;20442;-49
2022/10/14 00:56:03;;;;;;;104.18;61.88;;;;;;;11.60;100.00;101412.47;5136659;27;20024;-48
2022/10/14 00:58:28;;;;;;;98.97;59.17;;;;;;;11.60;100.00;101409.88;5135886;27;20031;-51
2022/10/14 01:00:53;;;;;;;103.25;58.42;;;;;;;11.60;100.00;101402.16;5136202;27;20034;-49
2022/10/14 01:03:22;;;;;;;102.03;59.38;;;;;;;11.60;100.00;101402.16;5136393;27;20027;-49
2022/10/14 01:06:00;;;;;;;102.53;60.58;;;;;;;11.60;100.00;101397.84;5135154;27;20023;-49
2022/10/14 01:08:36;;;;;;;96.32;59.17;;;;;;;11.59;100.00;101406.41;5136519;27;20058;-50
2022/10/14 01:11:27;;;;;;;102.78;61.20;;;;;;;11.63;100.00;101400.56;5136479;27;20115;-49
2022/10/14 01:14:27;;;;;;;104.93;63.65;;;;;;;11.64;100.00;101398.84;5135267;27;20032;-48
2022/10/14 01:17:24;;;;;;;101.70;60.83;;;;;;;11.64;100.00;101391.09;5103818;27;20039;-46
2022/10/14 01:20:11;;;;;;;106.95;63.70;;;;;;;11.63;100.00;101390.22;5135192;27;20031;-49
2022/10/14 01:23:19;;;;;;;102.75;63.33;;;;;;;11.62;100.00;101384.97;5134668;27;20027;-49
2022/10/14 01:26:07;;;;;;;99.35;60.47;;;;;;;11.61;100.00;101375.50;5097207;27;20073;-50
2022/10/14 01:28:44;;;;;;;107.45;62.47;;;;;;;11.58;100.00;101365.06;5135263;27;20037;-50
2022/10/14 01:31:16;;;;;;;98.78;60.20;;;;;;;11.55;100.00;101352.06;5136208;27;20109;-49
2022/10/14 01:33:45;;;;;;;102.97;59.83;;;;;;;11.54;100.00;101346.00;5134943;27;20015;-47
2022/10/14 01:36:16;;;;;;;101.32;60.60;;;;;;;11.55;100.00;101339.16;5135876;27;20046;-50
2022/10/14 01:38:52;;;;;;;103.20;61.85;;;;;;;11.52;100.00;101337.34;5135402;27;20019;-50
2022/10/14 01:41:26;;;;;;;100.75;60.25;;;;;;;11.51;100.00;101341.63;5135093;27;20023;-49
2022/10/14 01:43:54;;;;;;;104.05;60.80;;;;;;;11.49;100.00;101343.28;5135394;27;20095;-47
2022/10/14 01:46:22;;;;;;;109.47;60.83;;;;;;;11.47;100.00;101339.75;5135701;27;20030;-50
2022/10/14 01:48:53;;;;;;;97.70;60.92;;;;;;;11.47;100.00;101337.19;5134406;27;20114;-49
2022/10/14 01:51:24;;;;;;;98.18;60.38;;;;;;;11.45;100.00;101336.28;5135413;27;20023;-50
2022/10/14 01:53:57;;;;;;;106.80;59.70;;;;;;;11.44;100.00;101329.34;5135153;27;20124;-48
2022/10/14 01:56:26;;;;;;;96.72;59.03;;;;;;;11.44;100.00;101334.50;5134765;27;20098;-50
2022/10/14 01:58:52;;;;;;;104.53;58.97;;;;;;;11.44;100.00;101337.09;5135124;27;20501;-49
2022/10/14 02:01:17;;;;;;;104.53;59.88;;;;;;;11.43;100.00;101340.50;5135273;27;20153;-50
2022/10/14 02:03:45;;;;;;;106.35;59.10;;;;;;;11.44;100.00;101338.78;5134195;27;20118;-51
2022/10/14 02:06:21;;;;;;;114.18;60.58;;;;;;;11.41;100.00;101334.38;5135015;27;20031;-49
2022/10/14 02:08:55;;;;;;;107.18;58.42;;;;;;;11.41;100.00;101326.66;5134142;27;20116;-50
2022/10/14 02:11:21;;;;;;;104.90;57.40;;;;;;;11.39;100.00;101324.84;5134994;27;20429;-49
2022/10/14 02:14:11;;;;;;;109.47;59.00;;;;;;;11.42;100.00;101325.81;5134843;27;20098;-48
2022/10/14 02:16:48;;;;;;;114.25;59.17;;;;;;;11.39;100.00;101330.00;5133894;27;20496;-49
2022/10/14 02:19:37;;;;;;;116.80;59.55;;;;;;;11.38;100.00;101323.97;5135169;27;20045;-48
2022/10/14 02:22:17;;;;;;;107.07;57.53;;;;;;;11.38;100.00;101323.97;5135046;27;20031;-48
2022/10/14 02:24:48;;;;;;;120.50;61.05;;;;;;;11.36;100.00;101317.88;5133743;27;20055;-49
2022/10/14 02:27:16;;;;;;;119.90;59.80;;;;;;;11.36;100.00;101316.19;5135045;27;20023;-50
2022/10/14 02:29:44;;;;;;;107.93;58.97;;;;;;;11.36;100.00;101316.19;5133897;27;20102;-50
2022/10/14 02:32:13;;;;;;;113.55;58.42;;;;;;;11.38;100.00;101316.22;5134632;27;20037;-50
2022/10/14 02:34:39;;;;;;;116.75;57.13;;;;;;;11.38;100.00;101316.22;5134546;27;20047;-47
2022/10/14 02:37:06;;;;;;;121.60;58.72;;;;;;;11.37;100.00;101317.03;5133825;27;20032;-49
2022/10/14 02:39:37;;;;;;;116.32;57.88;;;;;;;11.39;100.00;101311.94;5134412;27;20034;-49
2022/10/14 02:42:04;;;;;;;123.15;59.53;;;;;;;11.38;100.00;101316.22;5134564;27;20101;-49
2022/10/14 02:44:29;;;;;;;114.90;56.55;;;;;;;11.38;100.00;101323.97;5133735;27;20035;-50
2022/10/14 02:46:55;;;;;;;113.03;57.47;;;;;;;11.40;100.00;101311.13;5134124;27;20356;-49
2022/10/14 02:49:21;;;;;;;109.70;57.25;;;;;;;11.40;100.00;101317.16;5134273;27;20047;-48
2022/10/14 02:51:47;;;;;;;117.60;57.17;;;;;;;11.40;100.00;101311.13;5133291;27;20072;-49
2022/10/14 02:54:12;;;;;;;109.75;56.55;;;;;;;11.42;100.00;101310.34;5134278;27;20078;-49
2022/10/14 02:56:38;;;;;;;110.35;55.33;;;;;;;11.41;100.00;101306.00;5134167;27;20050;-48
2022/10/14 02:59:03;;;;;;;111.97;56.63;;;;;;;11.42;100.00;101301.72;5133395;27;20023;-50
2022/10/14 03:01:29;;;;;;;117.55;55.03;;;;;;;11.44;100.00;101297.47;5134168;27;20019;-49
2022/10/14 03:03:54;;;;;;;111.20;55.40;;;;;;;11.43;100.00;101288.00;5133848;27;20039;-50
2022/10/14 03:06:19;;;;;;;113.60;55.35;;;;;;;11.42;100.00;101294.84;5133327;27;20171;-50
2022/10/14 03:08:44;;;;;;;115.63;55.45;;;;;;;11.42;100.00;101287.09;5133838;27;20033;-50
2022/10/14 03:11:10;;;;;;;116.22;54.90;;;;;;;11.44;100.00;101292.31;5134299;27;20023;-48
2022/10/14 03:13:35;;;;;;;113.82;53.58;;;;;;;11.44;100.00;101288.06;5132974;27;20019;-51
2022/10/14 03:16:00;;;;;;;117.55;53.75;;;;;;;11.45;100.00;101283.75;5134159;27;20039;-50
2022/10/14 03:18:26;;;;;;;124.95;56.40;;;;;;;11.44;100.00;101282.88;5134054;27;20054;-47
2022/10/14 03:20:51;;;;;;;126.72;55.03;;;;;;;11.44;100.00;101276.84;5132765;27;20031;-49
2022/10/14 03:23:16;;;;;;;124.85;55.00;;;;;;;11.45;100.00;101278.59;5133940;27;20390;-50
2022/10/14 03:25:45;;;;;;;127.20;54.92;;;;;;;11.45;100.00;101284.66;5133809;27;20050;-47
2022/10/14 03:28:11;;;;;;;120.45;54.03;;;;;;;11.46;100.00;101277.78;5133188;28;20019;-49
2022/10/14 03:30:37;;;;;;;122.40;54.17;;;;;;;11.47;100.00;101276.94;5133720;28;20023;-50
2022/10/14 03:33:02;;;;;;;130.63;53.42;;;;;;;11.48;100.00;101268.38;5132993;28;20019;-49
2022/10/14 03:35:28;;;;;;;122.50;53.08;;;;;;;11.47;100.00;101267.50;5133852;28;20045;-51
2022/10/14 03:37:53;;;;;;;128.57;53.65;;;;;;;11.48;100.00;101266.66;5133518;28;20351;-50
2022/10/14 03:40:19;;;;;;;129.77;53.15;;;;;;;11.47;100.00;101264.91;5133082;28;20027;-50
2022/10/14 03:42:45;;;;;;;132.68;54.30;;;;;;;11.49;100.00;101263.28;5133728;28;20031;-50
2022/10/14 03:45:10;;;;;;;126.03;53.38;;;;;;;11.49;100.00;101258.09;5135293;27;20035;-48
2022/10/14 03:47:36;;;;;;;116.78;53.42;;;;;;;11.52;100.00;101260.78;5136617;27;20050;-48
2022/10/14 03:50:03;;;;;;;120.35;51.45;;;;;;;11.51;100.00;101246.09;5137834;27;20027;-48
2022/10/14 03:52:29;;;;;;;;;;;;;;;11.60;100.00;101249.84;5138283;27;20023;-48
2022/10/14 03:54:54;;;;;;;123.93;52.72;;;;;;;11.55;100.00;101243.66;5136774;27;19911;-49
2022/10/14 03:57:19;;;;;;;117.35;52.30;;;;;;;11.56;100.00;101250.56;5137857;27;20481;-50
2022/10/14 03:59:44;;;;;;;123.88;51.70;;;;;;;11.56;100.00;101250.56;5137355;27;20019;-48
2022/10/14 04:02:10;;;;;;;124.63;52.55;;;;;;;11.55;100.00;101241.06;5136915;27;20023;-47
2022/10/14 04:04:35;;;;;;;118.15;51.60;;;;;;;11.56;100.00;101235.94;5137341;27;20023;-48
2022/10/14 04:07:00;;;;;;;125.13;52.55;;;;;;;11.56;100.00;101235.06;5137468;27;20508;-46
2022/10/14 04:09:26;;;;;;;119.03;51.83;;;;;;;11.56;100.00;101233.34;5136692;27;20029;-50
2022/10/14 04:11:52;;;;;;;110.53;50.20;;;;;;;11.55;100.00;101234.19;5137333;27;20039;-50
2022/10/14 04:14:17;;;;;;;117.93;52.95;;;;;;;11.57;100.00;101226.47;5137374;27;20023;-50
2022/10/14 04:16:42;;;;;;;125.82;53.13;;;;;;;11.57;100.00;101231.63;5136365;27;20023;-47
2022/10/14 04:19:08;;;;;;;110.15;51.33;;;;;;;11.59;100.00;101235.16;5137277;27;20443;-49
2022/10/14 04:21:33;;;;;;;107.13;50.38;;;;;;;11.59;100.00;101232.59;5136967;27;20026;-50
2022/10/14 04:23:58;;;;;;;122.10;51.60;;;;;;;11.58;100.00;101238.56;5136216;27;20015;-51
2022/10/14 04:26:23;;;;;;;113.65;50.53;;;;;;;11.59;100.00;101224.84;5137430;27;20033;-49
2022/10/14 04:28:49;;;;;;;120.50;51.20;;;;;;;11.59;100.00;101219.66;5136998;27;20083;-49
2022/10/14 04:31:14;;;;;;;111.28;50.28;;;;;;;11.59;100.00;101215.38;5136240;27;20343;-47
2022/10/14 04:33:40;;;;;;;103.88;49.42;;;;;;;11.60;100.00;101230.03;5136834;27;20019;-49
2022/10/14 04:36:05;;;;;;;114.82;50.50;;;;;;;11.59;100.00;101220.53;5136933;27;20019;-49
2022/10/14 04:38:31;;;;;;;116.75;50.60;;;;;;;11.60;100.00;101216.28;5136040;27;20019;-50
2022/10/14 04:40:57;;;;;;;110.28;50.80;;;;;;;11.61;100.00;101212.88;5137258;27;20373;-49
2022/10/14 04:43:23;;;;;;;114.57;49.72;;;;;;;11.61;100.00;101218.03;5136093;27;20023;-47
2022/10/14 04:45:48;;;;;;;109.00;49.10;;;;;;;11.61;100.00;101207.69;5136543;27;20034;-50
2022/10/14 04:48:15;;;;;;;95.55;46.88;;;;;;;11.63;100.00;101208.59;5136602;27;20424;-47
2022/10/14 04:50:40;;;;;;;94.57;47.15;;;;;;;11.62;100.00;101209.44;5135481;27;20027;-49
2022/10/14 04:53:06;;;;;;;101.38;47.53;;;;;;;11.64;100.00;101205.19;5136834;27;20019;-50
2022/10/14 04:55:31;;;;;;;90.03;44.55;;;;;;;11.64;100.00;101203.47;5136266;27;20027;-50
2022/10/14 04:57:56;;;;;;;98.03;45.33;;;;;;;11.65;100.00;101199.22;5135862;27;20042;-48
2022/10/14 05:00:22;;;;;;;93.50;44.78;;;;;;;11.64;100.00;101198.31;5136675;27;20027;-49
2022/10/14 05:02:47;;;;;;;86.32;45.17;;;;;;;11.66;100.00;101200.97;5136311;27;20027;-49
2022/10/14 05:05:13;;;;;;;91.03;44.53;;;;;;;11.65;100.00;101191.47;5135439;27;20023;-48
2022/10/14 05:07:40;;;;;;;91.63;43.72;;;;;;;11.65;100.00;101194.91;5136359;27;20016;-49
2022/10/14 05:10:05;;;;;;;95.18;44.75;;;;;;;11.65;100.00;101188.88;5136388;27;20015;-51
2022/10/14 05:12:31;;;;;;;87.75;44.97;;;;;;;11.66;100.00;101188.06;5135592;27;20038;-50
2022/10/14 05:14:57;;;;;;;82.60;43.60;;;;;;;11.66;100.00;101185.47;5136591;27;20026;-48
2022/10/14 05:17:22;;;;;;;79.10;41.83;;;;;;;11.66;100.00;101173.44;5136152;27;20030;-48
2022/10/14 05:19:48;;;;;;;79.10;41.97;;;;;;;11.66;100.00;101178.59;5135149;27;20023;-49
2022/10/14 05:22:14;;;;;;;86.57;42.75;;;;;;;11.67;100.00;101171.72;5136302;27;20019;-48
2022/10/14 05:24:39;;;;;;;77.72;40.72;;;;;;;11.68;100.00;101176.06;5135887;27;20031;-50
2022/10/14 05:27:05;;;;;;;75.15;40.60;;;;;;;11.68;100.00;101173.47;5135345;27;20015;-49
2022/10/14 05:29:30;;;;;;;77.80;40.13;;;;;;;11.70;100.00;101164.09;5135737;27;20016;-44
2022/10/14 05:31:56;;;;;;;75.50;40.08;;;;;;;11.70;100.00;101166.66;5136204;27;20075;-49
2022/10/14 05:34:21;;;;;;;72.53;39.63;;;;;;;11.72;100.00;101154.66;5135040;27;20398;-48
2022/10/14 05:36:46;;;;;;;75.10;38.50;;;;;;;11.72;100.00;101154.66;5135713;27;20363;-49
2022/10/14 05:39:12;;;;;;;72.90;38.53;;;;;;;11.73;100.00;101151.25;5135949;27;20083;-49
2022/10/14 05:41:37;;;;;;;67.35;38.30;;;;;;;11.73;100.00;101151.25;5134701;27;20019;-50
2022/10/14 05:44:03;;;;;;;70.75;37.95;;;;;;;11.75;100.00;101148.72;5135699;27;20037;-49
2022/10/14 05:46:29;;;;;;;71.63;38.28;;;;;;;11.76;100.00;101135.88;5135728;27;20030;-50
2022/10/14 05:48:55;;;;;;;66.72;36.70;;;;;;;11.75;100.00;101141.84;5134309;27;20043;-50
2022/10/14 05:51:21;;;;;;;69.72;37.28;;;;;;;11.77;100.00;101140.19;5135479;27;20098;-50
2022/10/14 05:53:47;;;;;;;56.10;33.90;;;;;;;11.78;100.00;101139.34;5134554;27;20043;-49
2022/10/14 05:56:13;;;;;;;65.22;35.80;;;;;;;11.79;100.00;101142.84;5135467;27;20027;-50
2022/10/14 05:58:38;;;;;;;59.10;33.70;;;;;;;11.80;100.00;101132.53;5135124;27;20016;-49
2022/10/14 06:01:06;;;;;;;58.90;33.65;;;;;;;11.81;100.00;101128.25;5134441;27;20059;-49
2022/10/14 06:03:31;;;;;;;56.55;35.03;;;;;;;11.81;100.00;101126.56;5134839;27;20023;-50
2022/10/14 06:05:57;;;;;;;64.07;35.03;;;;;;;11.82;100.00;101125.69;5135365;27;20027;-48
2022/10/14 06:08:23;;;;;;;60.10;34.70;;;;;;;11.84;100.00;101136.97;5133451;27;20462;-49
2022/10/14 06:10:49;;;;;;;58.03;33.17;;;;;;;11.86;100.00;101137.88;5135084;27;20023;-48
2022/10/14 06:13:14;;;;;;;55.90;33.42;;;;;;;11.87;100.00;101128.41;5135096;27;20023;-48
2022/10/14 06:15:40;;;;;;;55.40;34.10;;;;;;;11.89;100.00;101125.88;5133816;27;20074;-49
2022/10/14 06:18:05;;;;;;;54.97;33.95;;;;;;;11.89;100.00;101121.59;5134922;27;20031;-50
2022/10/14 06:20:30;;;;;;;61.15;38.70;;;;;;;11.91;100.00;101124.22;5134535;27;20477;-46
2022/10/14 06:22:58;;;;;;;58.22;33.65;;;;;;;11.91;100.00;101124.22;5134218;27;20029;-47
2022/10/14 06:25:24;;;;;;;51.85;32.90;;;;;;;11.92;100.00;101121.69;5134709;27;20478;-50
2022/10/14 06:27:49;;;;;;;48.08;32.53;;;;;;;11.94;100.00;101119.13;5134374;27;20038;-48
2022/10/14 06:30:15;;;;;;;67.03;49.97;;;;;;;11.95;100.00;101115.72;5133991;27;20095;-50
2022/10/14 06:32:40;;;;;;;52.72;35.08;;;;;;;11.96;100.00;101120.09;5134377;27;20047;-50
2022/10/14 06:35:06;;;;;;;47.60;30.05;;;;;;;11.97;100.00;101119.28;5134887;27;20020;-50
2022/10/14 06:37:31;;;;;;;49.50;30.38;;;;;;;11.99;100.00;101112.44;5133750;27;20038;-49
2022/10/14 06:39:56;;;;;;;44.97;29.27;;;;;;;12.00;100.00;101115.03;5134627;27;20016;-48
2022/10/14 06:42:21;;;;;;;47.13;29.88;;;;;;;12.01;100.00;101110.78;5134666;27;20477;-49
2022/10/14 06:44:47;;;;;;;46.35;29.77;;;;;;;12.03;100.00;101103.91;5133285;27;20031;-50
2022/10/14 06:47:12;;;;;;;47.63;29.98;;;;;;;12.03;100.00;101114.25;5134304;27;20027;-50
2022/10/14 06:49:37;;;;;;;46.33;28.95;;;;;;;12.05;100.00;101111.75;5133966;27;20047;-49
2022/10/14 06:52:03;;;;;;;39.63;27.77;;;;;;;12.06;100.00;101109.19;5133740;27;20019;-48
2022/10/14 06:54:28;;;;;;;40.85;27.73;;;;;;;12.07;100.00;101110.94;5134636;27;20027;-49
2022/10/14 06:56:53;;;;;;;38.47;27.30;;;;;;;12.11;100.00;101106.72;5133818;27;20015;-48
2022/10/14 06:59:18;;;;;;;45.90;29.10;;;;;;;12.12;100.00;101111.06;5133914;27;20031;-50
2022/10/14 07:01:44;;;;;;;41.30;26.40;;;;;;;12.12;100.00;101106.78;5133898;27;20019;-49
2022/10/14 07:04:09;;;;;;;55.40;36.42;;;;;;;12.15;100.00;101103.41;5133485;27;20092;-49
2022/10/14 07:06:38;;;;;;;41.00;27.25;;;;;;;12.16;100.00;101097.38;5133759;27;20023;-49
2022/10/14 07:09:04;;;;;;;39.05;27.27;;;;;;;12.17;100.00;101097.44;5134109;27;20106;-50
2022/10/14 07:11:29;;;;;;;42.80;29.00;;;;;;;12.18;100.00;101095.72;5133287;27;20024;-54
2022/10/14 07:13:55;;;;;;;40.35;27.77;;;;;;;12.19;100.00;101095.75;5133648;27;20025;-45
2022/10/14 07:16:21;;;;;;;123.97;91.93;;;;;;;12.21;100.00;101092.34;5133978;27;20034;-49
2022/10/14 07:18:47;;;;;;;43.63;32.35;;;;;;;12.22;100.00;101094.97;5132699;27;20027;-48
2022/10/14 07:21:12;;;;;;;40.03;27.38;;;;;;;12.25;100.00;101092.50;5134111;27;20034;-50
2022/10/14 07:23:37;;;;;;;39.53;29.38;;;;;;;12.27;100.00;101102.88;5133723;27;20066;-50
2022/10/14 07:26:03;;;;;;;42.17;28.90;;;;;;;12.28;100.00;101099.44;5133006;28;20126;-51
2022/10/14 07:28:28;;;;;;;39.42;26.60;;;;;;;12.30;100.00;101103.81;5134275;28;20067;-50
2022/10/14 07:31:04;;;;;;;36.20;25.50;;;;;;;12.30;100.00;101109.00;5133505;28;20020;-49
2022/10/14 07:33:30;;;;;;;35.75;25.00;;;;;;;12.33;100.00;101113.34;5133333;28;20114;-50
2022/10/14 07:36:01;;;;;;;34.05;25.65;;;;;;;12.33;100.00;101115.91;5133957;28;20025;-49
2022/10/14 07:38:26;;;;;;;37.47;26.10;;;;;;;12.35;100.00;101111.69;5133872;28;20038;-50
2022/10/14 07:41:00;;;;;;;38.13;25.80;;;;;;;12.38;100.00;101109.16;5132693;28;20035;-48
2022/10/14 07:43:26;;;;;;;34.60;25.92;;;;;;;12.40;100.00;101104.91;5133628;28;20061;-49
2022/10/14 07:45:59;;;;;;;37.97;26.25;;;;;;;12.41;100.00;101106.69;5133621;28;20031;-48
2022/10/14 07:48:24;;;;;;;34.40;24.83;;;;;;;12.43;100.00;101110.16;5132667;28;20475;-50
2022/10/14 07:50:50;;;;;;;33.38;24.73;;;;;;;12.46;100.00;101097.34;5133407;28;20102;-50
2022/10/14 07:53:15;;;;;;;35.05;25.63;;;;;;;12.50;100.00;101090.53;5132786;28;20131;-51
2022/10/14 07:55:50;;;;;;;32.22;23.88;;;;;;;12.51;100.00;101098.31;5133414;28;20059;-48
2022/10/14 07:58:20;;;;;;;30.75;22.77;;;;;;;12.52;100.00;101094.00;5133622;28;20035;-51
2022/10/14 08:00:45;;;;;;;31.95;22.63;;;;;;;12.53;100.00;101100.94;5132729;28;20026;-50
2022/10/14 08:03:10;;;;;;;32.45;23.70;;;;;;;12.56;100.00;101087.22;5133723;28;20031;-49
2022/10/14 08:05:36;;;;;;;33.97;24.00;;;;;;;12.61;100.00;101090.78;5133261;28;20134;-50
2022/10/14 08:08:01;;;;;;;31.15;22.13;;;;;;;12.62;100.00;101082.22;5132855;28;20034;-48
2022/10/14 08:10:26;;;;;;;30.77;22.58;;;;;;;12.65;100.00;101088.34;5133484;28;20072;-51
2022/10/14 08:12:52;;;;;;;31.73;22.80;;;;;;;12.72;100.00;101088.47;5133390;28;20023;-49
2022/10/14 08:15:17;;;;;;;30.88;22.17;;;;;;;12.76;100.00;101087.72;5132685;28;20411;-49
2022/10/14 08:17:42;;;;;;;29.73;22.00;;;;;;;12.80;100.00;101089.56;5133392;28;20028;-50
2022/10/14 08:20:08;;;;;;;32.13;21.70;;;;;;;12.84;100.00;101086.19;5133518;28;20026;-49
2022/10/14 08:22:33;;;;;;;29.55;21.58;;;;;;;12.90;100.00;101085.44;5132428;28;20102;-51
2022/10/14 08:24:58;;;;;;;28.27;21.58;;;;;;;12.95;100.00;101071.81;5133300;28;20377;-49
2022/10/14 08:27:25;;;;;;;25.60;20.05;;;;;;;13.05;100.00;101072.88;5133303;28;20027;-50
2022/10/14 08:29:50;;;;;;;26.40;20.48;;;;;;;13.09;100.00;101066.97;5132551;28;20031;-49
2022/10/14 08:32:16;;;;;;;26.95;19.50;;;;;;;13.13;100.00;101073.94;5136166;27;20022;-50
2022/10/14 08:34:41;;;;;;;26.80;20.77;;;;;;;13.22;100.00;101072.38;5136949;27;20043;-49
2022/10/14 08:37:10;;;;;;;27.77;20.38;;;;;;;13.33;100.00;101070.91;5136488;27;20462;-48
2022/10/14 08:39:35;;;;;;;24.75;18.55;;;;;;;13.37;100.00;101075.34;5136596;27;20106;-49
2022/10/14 08:42:11;;;;;;;22.65;18.10;;;;;;;13.38;100.00;101077.09;5136915;27;20172;-51
2022/10/14 08:44:48;;;;;;;26.63;18.73;;;;;;;13.46;100.00;101085.91;5135917;27;20034;-49
2022/10/14 08:47:19;;;;;;;23.40;18.00;;;;;;;13.47;100.00;101073.84;5136968;27;20042;-50
2022/10/14 08:50:01;;;;;;;22.15;17.45;;;;;;;13.50;100.00;101082.56;5135662;27;20031;-50
2022/10/14 08:52:37;;;;;;;22.60;17.42;;;;;;;13.50;100.00;101072.19;5136967;27;20030;-49
2022/10/14 08:55:23;;;;;;;24.33;17.55;;;;;;;13.54;100.00;101069.66;5136599;27;20389;-50
2022/10/14 08:57:55;;;;;;;23.15;17.13;;;;;;;13.56;100.00;101073.19;5135611;27;20155;-49
2022/10/14 09:00:21;;;;;;;24.25;18.05;;;;;;;13.56;100.00;101071.44;5136480;27;20427;-50
2022/10/14 09:02:49;;;;;;;25.83;19.67;;;;;;;13.58;100.00;101076.66;5136179;27;20462;-50
2022/10/14 09:05:20;;;;;;;20.98;16.27;;;;;;;13.57;100.00;101077.47;5135796;27;20030;-51
2022/10/14 09:07:47;;;;;;;26.17;18.73;;;;;;;13.59;100.00;101075.81;5136368;27;20023;-50
2022/10/14 09:10:25;;;;;;;24.55;19.60;;;;;;;13.68;100.00;101063.03;5136432;27;20029;-49
2022/10/14 09:12:54;;;;;;;24.40;17.48;;;;;;;13.69;100.00;101058.75;5135228;27;20386;-47
2022/10/14 09:15:26;;;;;;;21.38;17.58;;;;;;;13.73;100.00;101064.00;5136139;27;20023;-50
2022/10/14 09:18:03;;;;;;;23.77;17.30;;;;;;;13.68;100.00;101063.03;5135378;27;20031;-49
2022/10/14 09:20:28;;;;;;;21.52;17.67;;;;;;;13.71;100.00;101057.94;5136296;27;20023;-49
2022/10/14 09:23:03;;;;;;;20.63;17.27;;;;;;;13.71;100.00;101063.13;5135960;27;20427;-50
2022/10/14 09:25:31;;;;;;;24.75;18.08;;;;;;;13.76;100.00;101056.31;5135081;27;20039;-50
2022/10/14 09:27:56;;;;;;;23.80;17.33;;;;;;;13.77;100.00;101058.03;5136233;27;20031;-49
2022/10/14 09:30:22;;;;;;;22.13;17.10;;;;;;;13.78;100.00;101051.16;5136119;27;20026;-49
2022/10/14 09:32:51;;;;;;;21.48;16.55;;;;;;;13.75;100.00;101053.69;5134936;27;20111;-50
2022/10/14 09:35:31;;;;;;;21.63;16.88;;;;;;;13.78;100.00;101052.03;5135949;27;20026;-50
2022/10/14 09:37:57;;;;;;;21.85;16.80;;;;;;;13.78;100.00;101054.63;5135862;27;20054;-47
2022/10/14 09:40:34;;;;;;;24.83;18.00;;;;;;;13.81;100.00;101054.69;5135028;27;20534;-50
2022/10/14 09:43:08;;;;;;;;;;;;;;;13.90;100.00;101050.53;5135132;27;20027;-49
2022/10/14 09:45:49;;;;;;;22.25;17.00;;;;;;;13.81;100.00;101043.44;5135293;27;20269;-50
2022/10/14 09:48:19;;;;;;;22.20;15.90;;;;;;;13.83;100.00;101037.44;5135480;27;20049;-49
2022/10/14 09:50:50;;;;;;;23.13;16.92;;;;;;;13.82;100.00;101046.06;5135113;27;20091;-49
2022/10/14 09:53:28;;;;;;;19.95;15.13;;;;;;;13.85;100.00;101036.63;5134976;27;20031;-50
2022/10/14 09:55:56;;;;;;;20.17;16.02;;;;;;;13.88;100.00;101044.44;5135411;27;20053;-50
2022/10/14 09:58:32;;;;;;;18.77;15.95;;;;;;;13.83;100.00;101042.63;5135528;27;20027;-51
2022/10/14 10:00:59;;;;;;;22.67;16.33;;;;;;;13.82;100.00;101033.09;5134523;27;20023;-49
2022/10/14 10:03:34;;;;;;;19.08;16.08;;;;;;;13.88;100.00;101034.97;5135523;27;20027;-51
2022/10/14 10:06:07;;;;;;;20.45;16.38;;;;;;;13.88;100.00;101034.97;5135351;27;20098;-51
2022/10/14 10:08:35;;;;;;;19.65;15.50;;;;;;;13.87;100.00;101029.75;5134226;27;20031;-51
2022/10/14 10:11:09;;;;;;;23.50;15.40;;;;;;;13.86;100.00;101033.19;5135177;27;20022;-51
2022/10/14 10:13:46;;;;;;;20.95;14.77;;;;;;;13.83;100.00;101031.41;5134849;27;20023;-51
2022/10/14 10:16:22;;;;;;;22.10;15.43;;;;;;;13.82;100.00;101032.25;5134535;27;20023;-50
2022/10/14 10:18:49;;;;;;;18.45;15.15;;;;;;;13.79;100.00;101030.47;5134959;27;20031;-51
2022/10/14 10:21:23;;;;;;;19.50;15.10;;;;;;;13.78;100.00;101022.69;5134221;27;20377;-51
2022/10/14 10:24:02;;;;;;;21.52;16.98;;;;;;;13.78;100.00;101027.84;5134698;27;20053;-50
2022/10/14 10:26:32;;;;;;;23.10;16.80;;;;;;;13.75;100.00;101017.41;5134902;27;20080;-50
2022/10/14 10:29:04;;;;;;;22.75;16.80;;;;;;;13.72;100.00;101022.53;5134174;27;20030;-49
2022/10/14 10:32:00;;;;;;;22.15;16.70;;;;;;;13.70;100.00;101013.88;5134909;27;20022;-49
2022/10/14 10:34:48;;;;;;;22.67;16.98;;;;;;;13.69;100.00;101015.59;5134663;27;20106;-51
2022/10/14 10:37:35;;;;;;;21.63;16.45;;;;;;;13.72;100.00;101015.63;5133928;27;20034;-50
2022/10/14 10:40:06;;;;;;;21.73;16.60;;;;;;;13.68;100.00;101008.66;5134558;27;20034;-50
2022/10/14 10:42:42;;;;;;;25.25;17.98;;;;;;;13.68;100.00;101008.66;5133438;27;20027;-48
2022/10/14 10:45:15;;;;;;;25.23;18.13;;;;;;;13.65;100.00;101006.88;5134653;27;20055;-48
2022/10/14 10:48:06;;;;;;;27.70;18.05;;;;;;;13.70;100.00;100998.31;5134298;27;20043;-50
2022/10/14 10:50:54;;;;;;;23.55;18.00;;;;;;;13.71;100.00;101000.97;5133561;27;20023;-51
2022/10/14 10:53:45;;;;;;;27.48;17.65;;;;;;;13.66;100.00;101002.59;5134024;27;20055;-51
2022/10/14 10:56:17;;;;;;;22.85;17.55;;;;;;;13.69;100.00;101002.63;5133760;27;20023;-51
2022/10/14 10:59:18;;;;;;;24.90;18.90;;;;;;;13.70;100.00;100993.13;5134205;27;20027;-49
2022/10/14 11:02:06;;;;;;;23.05;17.25;;;;;;;13.73;100.00;100994.06;5133963;27;20522;-51
2022/10/14 11:04:44;;;;;;;24.42;18.05;;;;;;;13.73;100.00;100986.31;5133020;27;20385;-51
2022/10/14 11:13:36;;;;;;;21.83;16.55;;;;;;;13.93;100.00;100981.50;5134552;27;20104;-50
2022/10/14 11:16:14;;;;;;;22.88;16.83;;;;;;;13.98;100.00;100976.38;5134007;27;20031;-50